sensor_id;sensor_type;location;lat;lon;timestamp;pressure;altitude;pressure_sealevel;temperature;humidity
38716;BME280;24833;49.324;8.694;2023-02-18T00:01:36;100718.00;;;11.63;86.73
38716;BME280;24833;49.324;8.694;2023-02-18T00:04:03;100719.84;;;11.62;86.42
38716;BME280;24833;49.324;8.694;2023-02-18T00:06:33;100716.53;;;11.60;86.86
38716;BME280;24833;49.324;8.694;2023-02-18T00:09:02;100715.50;;;11.61;86.43
38716;BME280;24833;49.324;8.694;2023-02-18T00:11:33;100715.50;;;11.61;86.46
38716;BME280;24833;49.324;8.694;2023-02-18T00:14:02;100706.66;;;11.61;86.46
38716;BME280;24833;49.324;8.694;2023-02-18T00:16:30;100708.50;;;11.60;86.86
38716;BME280;24833;49.324;8.694;2023-02-18T00:19:04;100707.66;;;11.60;86.66
38716;BME280;24833;49.324;8.694;2023-02-18T00:21:33;100699.84;;;11.58;86.43
38716;BME280;24833;49.324;8.694;2023-02-18T00:24:02;100705.19;;;11.58;86.45
38716;BME280;24833;49.324;8.694;2023-02-18T00:26:29;100713.22;;;11.58;86.52
38716;BME280;24833;49.324;8.694;2023-02-18T00:28:56;100708.88;;;11.57;86.76
38716;BME280;24833;49.324;8.694;2023-02-18T00:31:32;100714.22;;;11.57;86.40
38716;BME280;24833;49.324;8.694;2023-02-18T00:34:02;100708.88;;;11.57;86.14
38716;BME280;24833;49.324;8.694;2023-02-18T00:36:30;100708.88;;;11.57;86.86
38716;BME280;24833;49.324;8.694;2023-02-18T00:39:02;100712.38;;;11.58;86.52
38716;BME280;24833;49.324;8.694;2023-02-18T00:41:30;100705.34;;;11.57;86.75
38716;BME280;24833;49.324;8.694;2023-02-18T00:43:58;100691.97;;;11.57;86.31
38716;BME280;24833;49.324;8.694;2023-02-18T00:46:26;100691.97;;;11.57;86.56
38716;BME280;24833;49.324;8.694;2023-02-18T00:48:54;100688.47;;;11.56;86.37
38716;BME280;24833;49.324;8.694;2023-02-18T00:51:22;100691.13;;;11.56;86.21
38716;BME280;24833;49.324;8.694;2023-02-18T00:53:49;100691.13;;;11.56;86.48
38716;BME280;24833;49.324;8.694;2023-02-18T00:56:16;100685.78;;;11.56;86.35
38716;BME280;24833;49.324;8.694;2023-02-18T00:58:43;100699.34;;;11.55;86.62
38716;BME280;24833;49.324;8.694;2023-02-18T01:01:11;100689.47;;;11.55;86.34
38716;BME280;24833;49.324;8.694;2023-02-18T01:03:41;100694.81;;;11.55;86.54
38716;BME280;24833;49.324;8.694;2023-02-18T01:06:10;100705.53;;;11.55;86.57
38716;BME280;24833;49.324;8.694;2023-02-18T01:08:39;100700.16;;;11.55;86.54
38716;BME280;24833;49.324;8.694;2023-02-18T01:11:08;100689.47;;;11.55;86.51
38716;BME280;24833;49.324;8.694;2023-02-18T01:13:36;100695.66;;;11.56;86.86
38716;BME280;24833;49.324;8.694;2023-02-18T01:16:06;100689.47;;;11.55;86.47
38716;BME280;24833;49.324;8.694;2023-02-18T01:18:34;100684.13;;;11.55;86.82
38716;BME280;24833;49.324;8.694;2023-02-18T01:21:05;100687.00;;;11.54;86.37
38716;BME280;24833;49.324;8.694;2023-02-18T01:23:37;100684.31;;;11.54;86.75
38716;BME280;24833;49.324;8.694;2023-02-18T01:26:04;100679.97;;;11.53;86.78
38716;BME280;24833;49.324;8.694;2023-02-18T01:28:32;100691.50;;;11.53;86.44
38716;BME280;24833;49.324;8.694;2023-02-18T01:31:06;100686.34;;;11.52;86.55
38716;BME280;24833;49.324;8.694;2023-02-18T01:33:34;100689.84;;;11.52;86.44
38716;BME280;24833;49.324;8.694;2023-02-18T01:36:02;100683.66;;;11.52;86.17
38716;BME280;24833;49.324;8.694;2023-02-18T01:38:29;100684.50;;;11.52;86.83
38716;BME280;24833;49.324;8.694;2023-02-18T01:40:56;100685.50;;;11.51;86.19
38716;BME280;24833;49.324;8.694;2023-02-18T01:43:23;100690.88;;;11.51;86.78
38716;BME280;24833;49.324;8.694;2023-02-18T01:49:07;100673.97;;;11.51;86.56
38716;BME280;24833;49.324;8.694;2023-02-18T01:51:33;100670.44;;;11.50;86.75
38716;BME280;24833;49.324;8.694;2023-02-18T01:54:13;100667.78;;;11.50;86.74
38716;BME280;24833;49.324;8.694;2023-02-18T01:59:49;100671.47;;;11.49;86.82
38716;BME280;24833;49.324;8.694;2023-02-18T02:02:23;100665.09;;;11.50;87.07
38716;BME280;24833;49.324;8.694;2023-02-18T02:04:53;100659.75;;;11.50;86.79
38716;BME280;24833;49.324;8.694;2023-02-18T02:07:22;100663.44;;;11.49;87.03
38716;BME280;24833;49.324;8.694;2023-02-18T02:09:56;100674.13;;;11.49;86.44
38716;BME280;24833;49.324;8.694;2023-02-18T02:15:27;100655.59;;;11.48;86.54
38716;BME280;24833;49.324;8.694;2023-02-18T02:24:50;100647.75;;;11.46;86.80
38716;BME280;24833;49.324;8.694;2023-02-18T02:27:28;100647.75;;;11.46;86.68
38716;BME280;24833;49.324;8.694;2023-02-18T02:30:30;100645.91;;;11.46;86.63
38716;BME280;24833;49.324;8.694;2023-02-18T02:50:51;100623.06;;;11.44;86.57
38716;BME280;24833;49.324;8.694;2023-02-18T02:53:25;100624.72;;;11.45;86.58
38716;BME280;24833;49.324;8.694;2023-02-18T02:55:53;100619.38;;;11.45;86.86
38716;BME280;24833;49.324;8.694;2023-02-18T02:58:23;100616.00;;;11.43;86.45
38716;BME280;24833;49.324;8.694;2023-02-18T03:01:18;100612.69;;;11.41;86.58
38716;BME280;24833;49.324;8.694;2023-02-18T03:04:19;100625.06;;;11.42;86.71
38716;BME280;24833;49.324;8.694;2023-02-18T03:10:02;100615.56;;;11.39;86.65
38716;BME280;24833;49.324;8.694;2023-02-18T03:12:49;100610.41;;;11.38;86.77
38716;BME280;24833;49.324;8.694;2023-02-18T03:15:29;100624.59;;;11.38;87.06
38716;BME280;24833;49.324;8.694;2023-02-18T03:18:06;100621.72;;;11.40;87.14
38716;BME280;24833;49.324;8.694;2023-02-18T03:20:55;100606.72;;;11.39;87.13
38716;BME280;24833;49.324;8.694;2023-02-18T03:23:31;100614.72;;;11.39;86.53
38716;BME280;24833;49.324;8.694;2023-02-18T03:26:03;100618.41;;;11.38;86.54
38716;BME280;24833;49.324;8.694;2023-02-18T03:28:32;100610.41;;;11.38;86.89
38716;BME280;24833;49.324;8.694;2023-02-18T03:31:09;100606.06;;;11.37;87.02
38716;BME280;24833;49.324;8.694;2023-02-18T03:33:48;100606.06;;;11.37;87.02
38716;BME280;24833;49.324;8.694;2023-02-18T03:36:19;100605.22;;;11.36;86.70
38716;BME280;24833;49.324;8.694;2023-02-18T03:39:14;100597.38;;;11.35;86.69
38716;BME280;24833;49.324;8.694;2023-02-18T03:41:42;100597.38;;;11.35;87.16
38716;BME280;24833;49.324;8.694;2023-02-18T03:44:11;100596.53;;;11.34;87.04
38716;BME280;24833;49.324;8.694;2023-02-18T03:46:41;100598.38;;;11.34;87.19
38716;BME280;24833;49.324;8.694;2023-02-18T03:49:12;100601.06;;;11.34;86.90
38716;BME280;24833;49.324;8.694;2023-02-18T03:51:40;100594.06;;;11.33;87.27
38716;BME280;24833;49.324;8.694;2023-02-18T03:54:08;100603.09;;;11.32;86.97
38716;BME280;24833;49.324;8.694;2023-02-18T03:56:36;100597.75;;;11.32;86.81
38716;BME280;24833;49.324;8.694;2023-02-18T03:59:03;100599.41;;;11.33;86.91
38716;BME280;24833;49.324;8.694;2023-02-18T04:01:30;100598.56;;;11.32;87.14
38716;BME280;24833;49.324;8.694;2023-02-18T04:03:57;100610.09;;;11.33;87.02
38716;BME280;24833;49.324;8.694;2023-02-18T04:06:24;100603.91;;;11.32;86.85
38716;BME280;24833;49.324;8.694;2023-02-18T04:08:51;100604.75;;;11.33;87.31
38716;BME280;24833;49.324;8.694;2023-02-18T04:11:18;100608.25;;;11.33;87.03
38716;BME280;24833;49.324;8.694;2023-02-18T04:13:46;100603.72;;;11.34;86.83
38716;BME280;24833;49.324;8.694;2023-02-18T04:16:13;100611.94;;;11.32;86.89
38716;BME280;24833;49.324;8.694;2023-02-18T04:18:40;100604.75;;;11.33;86.91
38716;BME280;24833;49.324;8.694;2023-02-18T04:21:08;100609.28;;;11.32;86.99
38716;BME280;24833;49.324;8.694;2023-02-18T04:23:35;100610.94;;;11.33;86.84
38716;BME280;24833;49.324;8.694;2023-02-18T04:26:02;100613.78;;;11.32;87.03
38716;BME280;24833;49.324;8.694;2023-02-18T04:28:29;100613.78;;;11.32;87.08
38716;BME280;24833;49.324;8.694;2023-02-18T04:30:56;100622.44;;;11.34;86.84
38716;BME280;24833;49.324;8.694;2023-02-18T04:33:23;100611.13;;;11.32;87.19
38716;BME280;24833;49.324;8.694;2023-02-18T04:35:50;100616.47;;;11.32;87.24
38716;BME280;24833;49.324;8.694;2023-02-18T04:38:17;100611.13;;;11.32;86.80
38716;BME280;24833;49.324;8.694;2023-02-18T04:40:44;100615.44;;;11.33;86.70
38716;BME280;24833;49.324;8.694;2023-02-18T04:43:10;100611.13;;;11.32;87.21
38716;BME280;24833;49.324;8.694;2023-02-18T04:45:38;100604.75;;;11.33;86.77
38716;BME280;24833;49.324;8.694;2023-02-18T04:48:05;100607.44;;;11.33;86.68
38716;BME280;24833;49.324;8.694;2023-02-18T04:50:32;100602.25;;;11.31;86.96
38716;BME280;24833;49.324;8.694;2023-02-18T04:52:58;100594.25;;;11.31;87.14
38716;BME280;24833;49.324;8.694;2023-02-18T04:55:26;100601.44;;;11.31;87.09
38716;BME280;24833;49.324;8.694;2023-02-18T04:57:53;100596.09;;;11.31;86.66
38716;BME280;24833;49.324;8.694;2023-02-18T05:00:20;100594.41;;;11.30;86.93
38716;BME280;24833;49.324;8.694;2023-02-18T05:02:47;100603.28;;;11.30;86.69
38716;BME280;24833;49.324;8.694;2023-02-18T05:05:15;100606.09;;;11.29;86.96
38716;BME280;24833;49.324;8.694;2023-02-18T05:07:42;100609.78;;;11.28;86.53
38716;BME280;24833;49.324;8.694;2023-02-18T05:10:14;100602.78;;;11.27;86.40
38716;BME280;24833;49.324;8.694;2023-02-18T05:12:41;100600.31;;;11.25;86.74
38716;BME280;24833;49.324;8.694;2023-02-18T05:15:09;100600.50;;;11.24;86.76
38716;BME280;24833;49.324;8.694;2023-02-18T05:17:36;100588.94;;;11.23;86.60
38716;BME280;24833;49.324;8.694;2023-02-18T05:20:05;100588.09;;;11.23;87.10
38716;BME280;24833;49.324;8.694;2023-02-18T05:22:36;100584.78;;;11.21;86.65
38716;BME280;24833;49.324;8.694;2023-02-18T05:25:03;100586.81;;;11.18;86.84
38716;BME280;24833;49.324;8.694;2023-02-18T05:27:31;100590.50;;;11.17;86.58
38716;BME280;24833;49.324;8.694;2023-02-18T05:29:58;100580.81;;;11.16;86.98
38716;BME280;24833;49.324;8.694;2023-02-18T05:32:25;100586.16;;;11.16;86.93
38716;BME280;24833;49.324;8.694;2023-02-18T05:34:52;100581.00;;;11.15;86.83
38716;BME280;24833;49.324;8.694;2023-02-18T05:37:19;100585.50;;;11.14;86.77
38716;BME280;24833;49.324;8.694;2023-02-18T05:39:45;100583.00;;;11.13;86.93
38716;BME280;24833;49.324;8.694;2023-02-18T05:42:12;100585.88;;;11.11;86.50
38716;BME280;24833;49.324;8.694;2023-02-18T05:44:40;100576.84;;;11.12;86.63
38716;BME280;24833;49.324;8.694;2023-02-18T05:47:10;100572.66;;;11.10;86.94
38716;BME280;24833;49.324;8.694;2023-02-18T05:49:39;100566.50;;;11.09;86.63
38716;BME280;24833;49.324;8.694;2023-02-18T05:52:09;100579.03;;;11.09;86.60
38716;BME280;24833;49.324;8.694;2023-02-18T05:54:36;100580.88;;;11.08;86.63
38716;BME280;24833;49.324;8.694;2023-02-18T05:57:03;100578.19;;;11.08;86.55
38716;BME280;24833;49.324;8.694;2023-02-18T05:59:30;100583.53;;;11.08;86.97
38716;BME280;24833;49.324;8.694;2023-02-18T06:01:57;100580.03;;;11.08;86.86
38716;BME280;24833;49.324;8.694;2023-02-18T06:04:24;100574.88;;;11.06;86.59
38716;BME280;24833;49.324;8.694;2023-02-18T06:06:51;100578.56;;;11.05;86.42
38716;BME280;24833;49.324;8.694;2023-02-18T06:09:18;100579.59;;;11.04;86.88
38716;BME280;24833;49.324;8.694;2023-02-18T06:11:45;100575.06;;;11.05;86.62
38716;BME280;24833;49.324;8.694;2023-02-18T06:14:12;100573.41;;;11.04;86.37
38716;BME280;24833;49.324;8.694;2023-02-18T06:16:39;100575.22;;;11.03;86.67
38716;BME280;24833;49.324;8.694;2023-02-18T06:19:06;100565.53;;;11.02;86.53
38716;BME280;24833;49.324;8.694;2023-02-18T06:21:33;100562.22;;;11.00;86.63
38716;BME280;24833;49.324;8.694;2023-02-18T06:24:01;100568.41;;;11.01;86.97
38716;BME280;24833;49.324;8.694;2023-02-18T06:26:28;100567.75;;;10.99;86.83
38716;BME280;24833;49.324;8.694;2023-02-18T06:28:55;100561.59;;;10.98;86.40
38716;BME280;24833;49.324;8.694;2023-02-18T06:31:22;100567.94;;;10.97;86.68
38716;BME280;24833;49.324;8.694;2023-02-18T06:33:49;100560.91;;;10.96;87.05
38716;BME280;24833;49.324;8.694;2023-02-18T06:36:16;100558.44;;;10.95;86.42
38716;BME280;24833;49.324;8.694;2023-02-18T06:38:44;100547.91;;;10.93;86.64
38716;BME280;24833;49.324;8.694;2023-02-18T06:41:12;100553.28;;;10.93;86.77
38716;BME280;24833;49.324;8.694;2023-02-18T06:43:40;100552.63;;;10.91;86.93
38716;BME280;24833;49.324;8.694;2023-02-18T06:46:08;100550.78;;;10.91;86.81
38716;BME280;24833;49.324;8.694;2023-02-18T06:48:35;100548.28;;;10.90;86.71
38716;BME280;24833;49.324;8.694;2023-02-18T06:51:04;100544.75;;;10.89;87.05
38716;BME280;24833;49.324;8.694;2023-02-18T06:53:31;100544.59;;;10.91;86.45
38716;BME280;24833;49.324;8.694;2023-02-18T06:55:58;100547.28;;;10.91;86.68
38716;BME280;24833;49.324;8.694;2023-02-18T06:58:25;100542.75;;;10.91;86.68
38716;BME280;24833;49.324;8.694;2023-02-18T07:00:52;100537.59;;;10.90;86.83
38716;BME280;24833;49.324;8.694;2023-02-18T07:03:19;100536.59;;;10.91;86.62
38716;BME280;24833;49.324;8.694;2023-02-18T07:05:46;100537.41;;;10.91;86.65
38716;BME280;24833;49.324;8.694;2023-02-18T07:08:13;100531.06;;;10.93;86.74
38716;BME280;24833;49.324;8.694;2023-02-18T07:10:40;100536.22;;;10.94;87.21
38716;BME280;24833;49.324;8.694;2023-02-18T07:13:07;100537.88;;;10.95;86.96
38716;BME280;24833;49.324;8.694;2023-02-18T07:15:34;100537.06;;;10.95;87.06
38716;BME280;24833;49.324;8.694;2023-02-18T07:18:01;100534.19;;;10.96;86.75
38716;BME280;24833;49.324;8.694;2023-02-18T07:20:28;100533.22;;;10.97;86.89
38716;BME280;24833;49.324;8.694;2023-02-18T07:22:55;100535.69;;;10.99;87.22
38716;BME280;24833;49.324;8.694;2023-02-18T07:25:23;100528.50;;;10.99;86.96
38716;BME280;24833;49.324;8.694;2023-02-18T07:27:50;100538.00;;;11.02;87.36
38716;BME280;24833;49.324;8.694;2023-02-18T07:30:19;100522.63;;;11.04;87.16
38716;BME280;24833;49.324;8.694;2023-02-18T07:32:46;100528.81;;;11.04;87.38
38716;BME280;24833;49.324;8.694;2023-02-18T07:35:15;100534.78;;;11.06;87.01
38716;BME280;24833;49.324;8.694;2023-02-18T07:37:47;100522.06;;;11.08;87.39
38716;BME280;24833;49.324;8.694;2023-02-18T07:40:18;100521.88;;;11.10;87.19
38716;BME280;24833;49.324;8.694;2023-02-18T07:42:46;100514.34;;;11.13;87.22
38716;BME280;24833;49.324;8.694;2023-02-18T07:45:13;100517.66;;;11.15;87.17
38716;BME280;24833;49.324;8.694;2023-02-18T07:47:40;100518.34;;;11.17;87.35
38716;BME280;24833;49.324;8.694;2023-02-18T07:50:09;100506.44;;;11.20;87.73
38716;BME280;24833;49.324;8.694;2023-02-18T07:52:36;100503.22;;;11.25;87.52
38716;BME280;24833;49.324;8.694;2023-02-18T07:55:03;100490.50;;;11.27;87.26
38716;BME280;24833;49.324;8.694;2023-02-18T07:57:30;100500.81;;;11.30;87.25
38716;BME280;24833;49.324;8.694;2023-02-18T07:59:57;100510.16;;;11.34;87.90
38716;BME280;24833;49.324;8.694;2023-02-18T08:02:24;100505.44;;;11.36;87.36
38716;BME280;24833;49.324;8.694;2023-02-18T08:04:51;100504.06;;;11.40;87.38
38716;BME280;24833;49.324;8.694;2023-02-18T08:07:20;100498.34;;;11.43;87.33
38716;BME280;24833;49.324;8.694;2023-02-18T08:09:47;100510.34;;;11.47;87.65
38716;BME280;24833;49.324;8.694;2023-02-18T08:12:16;100507.28;;;11.50;87.29
38716;BME280;24833;49.324;8.694;2023-02-18T08:14:44;100516.63;;;11.54;87.92
38716;BME280;24833;49.324;8.694;2023-02-18T08:17:11;100509.06;;;11.58;87.94
38716;BME280;24833;49.324;8.694;2023-02-18T08:19:37;100503.16;;;11.62;87.71
38716;BME280;24833;49.324;8.694;2023-02-18T08:22:05;100508.16;;;11.65;87.45
38716;BME280;24833;49.324;8.694;2023-02-18T08:24:32;100507.78;;;11.68;87.37
38716;BME280;24833;49.324;8.694;2023-02-18T08:26:59;100503.09;;;11.70;87.40
38716;BME280;24833;49.324;8.694;2023-02-18T08:29:28;100504.34;;;11.74;87.49
38716;BME280;24833;49.324;8.694;2023-02-18T08:31:55;100505.00;;;11.77;87.16
38716;BME280;24833;49.324;8.694;2023-02-18T08:34:25;100503.00;;;11.79;87.35
38716;BME280;24833;49.324;8.694;2023-02-18T08:36:52;100502.63;;;11.82;87.08
38716;BME280;24833;49.324;8.694;2023-02-18T08:39:19;100499.75;;;11.83;87.53
38716;BME280;24833;49.324;8.694;2023-02-18T08:41:46;100501.44;;;11.84;87.28
38716;BME280;24833;49.324;8.694;2023-02-18T08:44:13;100494.25;;;11.85;87.27
38716;BME280;24833;49.324;8.694;2023-02-18T08:46:40;100498.38;;;11.87;87.62
38716;BME280;24833;49.324;8.694;2023-02-18T08:49:07;100495.53;;;11.89;86.91
38716;BME280;24833;49.324;8.694;2023-02-18T08:51:34;100492.50;;;11.92;87.27
38716;BME280;24833;49.324;8.694;2023-02-18T08:54:01;100485.28;;;11.92;87.20
38716;BME280;24833;49.324;8.694;2023-02-18T08:56:28;100487.56;;;11.95;87.13
38716;BME280;24833;49.324;8.694;2023-02-18T08:58:55;100478.53;;;11.96;87.13
38716;BME280;24833;49.324;8.694;2023-02-18T09:01:22;100473.63;;;12.00;87.35
38716;BME280;24833;49.324;8.694;2023-02-18T09:03:49;100482.31;;;12.02;87.17
38716;BME280;24833;49.324;8.694;2023-02-18T09:06:17;100478.25;;;12.06;87.22
38716;BME280;24833;49.324;8.694;2023-02-18T09:08:43;100466.31;;;12.09;87.04
38716;BME280;24833;49.324;8.694;2023-02-18T09:11:11;100462.25;;;12.13;86.71
38716;BME280;24833;49.324;8.694;2023-02-18T09:13:39;100464.75;;;12.14;87.14
38716;BME280;24833;49.324;8.694;2023-02-18T09:16:10;100472.84;;;12.21;86.92
38716;BME280;24833;49.324;8.694;2023-02-18T09:18:37;100480.53;;;12.24;86.53
38716;BME280;24833;49.324;8.694;2023-02-18T09:21:07;100478.28;;;12.27;87.05
38716;BME280;24833;49.324;8.694;2023-02-18T09:23:35;100474.59;;;12.28;86.55
38716;BME280;24833;49.324;8.694;2023-02-18T09:26:09;100477.72;;;12.32;86.88
38716;BME280;24833;49.324;8.694;2023-02-18T09:28:38;100471.78;;;12.37;86.81
38716;BME280;24833;49.324;8.694;2023-02-18T09:31:08;100479.44;;;12.40;86.70
38716;BME280;24833;49.324;8.694;2023-02-18T09:33:40;100469.84;;;12.45;86.19
38716;BME280;24833;49.324;8.694;2023-02-18T09:36:11;100487.16;;;12.49;86.54
38716;BME280;24833;49.324;8.694;2023-02-18T09:38:38;100494.84;;;12.52;86.47
38716;BME280;24833;49.324;8.694;2023-02-18T09:43:58;100487.22;;;12.56;86.08
38716;BME280;24833;49.324;8.694;2023-02-18T09:46:42;100484.19;;;12.59;86.30
38716;BME280;24833;49.324;8.694;2023-02-18T09:49:24;100483.38;;;12.59;85.95
38716;BME280;24833;49.324;8.694;2023-02-18T09:51:53;100482.97;;;12.62;85.66
38716;BME280;24833;49.324;8.694;2023-02-18T09:54:25;100474.72;;;12.63;86.10
38716;BME280;24833;49.324;8.694;2023-02-18T09:56:53;100474.72;;;12.63;85.89
38716;BME280;24833;49.324;8.694;2023-02-18T09:59:21;100485.09;;;12.66;85.43
38716;BME280;24833;49.324;8.694;2023-02-18T10:01:51;100481.38;;;12.67;85.50
38716;BME280;24833;49.324;8.694;2023-02-18T10:04:36;100472.94;;;12.70;85.84
38716;BME280;24833;49.324;8.694;2023-02-18T10:07:25;100475.25;;;12.73;86.38
38716;BME280;24833;49.324;8.694;2023-02-18T10:09:56;100485.56;;;12.76;85.90
38716;BME280;24833;49.324;8.694;2023-02-18T10:12:26;100479.84;;;12.79;85.78
38716;BME280;24833;49.324;8.694;2023-02-18T10:14:57;100479.28;;;12.84;85.77
38716;BME280;24833;49.324;8.694;2023-02-18T10:17:29;100481.75;;;12.86;85.71
38716;BME280;24833;49.324;8.694;2023-02-18T10:19:58;100481.56;;;12.87;85.06
38716;BME280;24833;49.324;8.694;2023-02-18T10:22:28;100487.38;;;12.91;85.02
38716;BME280;24833;49.324;8.694;2023-02-18T10:25:01;100475.63;;;12.92;85.05
38716;BME280;24833;49.324;8.694;2023-02-18T10:27:35;100463.88;;;12.93;85.18
38716;BME280;24833;49.324;8.694;2023-02-18T10:32:54;100469.88;;;12.95;84.89
38716;BME280;24833;49.324;8.694;2023-02-18T10:35:33;100471.53;;;12.96;85.00
38716;BME280;24833;49.324;8.694;2023-02-18T10:41:24;100475.28;;;13.01;84.17
38716;BME280;24833;49.324;8.694;2023-02-18T10:44:14;100487.50;;;13.04;85.14
38716;BME280;24833;49.324;8.694;2023-02-18T10:46:59;100462.34;;;13.05;84.59
38716;BME280;24833;49.324;8.694;2023-02-18T10:52:15;100468.56;;;13.12;83.78
38716;BME280;24833;49.324;8.694;2023-02-18T10:55:09;100467.34;;;13.15;84.24
38716;BME280;24833;49.324;8.694;2023-02-18T10:57:51;100478.53;;;13.18;83.93
38716;BME280;24833;49.324;8.694;2023-02-18T11:00:25;100464.91;;;13.20;83.63
38716;BME280;24833;49.324;8.694;2023-02-18T11:03:15;100471.56;;;13.24;84.62
38716;BME280;24833;49.324;8.694;2023-02-18T11:05:45;100482.13;;;13.25;83.80
38716;BME280;24833;49.324;8.694;2023-02-18T11:08:19;100476.75;;;13.25;83.23
38716;BME280;24833;49.324;8.694;2023-02-18T11:10:48;100471.38;;;13.25;82.07
38716;BME280;24833;49.324;8.694;2023-02-18T11:13:29;100467.06;;;13.24;83.05
38716;BME280;24833;49.324;8.694;2023-02-18T11:16:05;100466.19;;;13.24;82.28
38716;BME280;24833;49.324;8.694;2023-02-18T11:18:42;100465.56;;;13.22;81.79
38716;BME280;24833;49.324;8.694;2023-02-18T11:21:31;100473.81;;;13.20;82.15
38716;BME280;24833;49.324;8.694;2023-02-18T11:24:12;100458.94;;;13.18;82.61
38716;BME280;24833;49.324;8.694;2023-02-18T11:26:41;100472.34;;;13.18;82.50
38716;BME280;24833;49.324;8.694;2023-02-18T11:29:23;100466.97;;;13.18;81.90
38716;BME280;24833;49.324;8.694;2023-02-18T11:31:54;100467.34;;;13.15;81.86
38716;BME280;24833;49.324;8.694;2023-02-18T11:34:27;100454.97;;;13.14;81.31
38716;BME280;24833;49.324;8.694;2023-02-18T11:37:08;100453.50;;;13.11;81.48
38716;BME280;24833;49.324;8.694;2023-02-18T11:39:36;100457.03;;;13.12;80.78
38716;BME280;24833;49.324;8.694;2023-02-18T11:42:13;100454.34;;;13.12;81.12
38716;BME280;24833;49.324;8.694;2023-02-18T11:44:55;100459.50;;;13.13;81.29
38716;BME280;24833;49.324;8.694;2023-02-18T11:47:32;100460.31;;;13.14;81.05
38716;BME280;24833;49.324;8.694;2023-02-18T11:52:38;100460.31;;;13.14;81.11
38716;BME280;24833;49.324;8.694;2023-02-18T11:55:22;100450.44;;;13.14;81.41
38716;BME280;24833;49.324;8.694;2023-02-18T12:00:30;100452.09;;;13.15;81.55
38716;BME280;24833;49.324;8.694;2023-02-18T12:03:02;100452.28;;;13.14;81.77
38716;BME280;24833;49.324;8.694;2023-02-18T12:05:31;100448.78;;;13.13;81.69
38716;BME280;24833;49.324;8.694;2023-02-18T12:08:23;100437.84;;;13.15;82.27
38716;BME280;24833;49.324;8.694;2023-02-18T12:10:58;100443.00;;;13.16;82.32
38716;BME280;24833;49.324;8.694;2023-02-18T12:13:36;100432.28;;;13.16;82.29
38716;BME280;24833;49.324;8.694;2023-02-18T12:22:27;100452.50;;;13.12;81.93
38716;BME280;24833;49.324;8.694;2023-02-18T12:39:48;100429.81;;;13.15;82.47
38716;BME280;24833;49.324;8.694;2023-02-18T12:51:16;100423.22;;;13.17;80.73
38716;BME280;24833;49.324;8.694;2023-02-18T12:57:25;100422.22;;;13.18;81.36
38716;BME280;24833;49.324;8.694;2023-02-18T13:00:22;100414.16;;;13.18;81.22
38716;BME280;24833;49.324;8.694;2023-02-18T13:06:33;100419.53;;;13.18;80.44
38716;BME280;24833;49.324;8.694;2023-02-18T13:12:20;100401.00;;;13.23;81.20
38716;BME280;24833;49.324;8.694;2023-02-18T13:14:59;100423.09;;;13.25;80.55
38716;BME280;24833;49.324;8.694;2023-02-18T13:17:34;100385.34;;;13.27;80.76
38716;BME280;24833;49.324;8.694;2023-02-18T13:20:36;100394.66;;;13.31;81.21
38716;BME280;24833;49.324;8.694;2023-02-18T13:23:11;100382.50;;;13.35;81.05
38716;BME280;24833;49.324;8.694;2023-02-18T13:25:44;100386.66;;;13.38;80.73
38716;BME280;24833;49.324;8.694;2023-02-18T13:28:28;100390.59;;;13.42;81.44
38716;BME280;24833;49.324;8.694;2023-02-18T13:34:43;100384.03;;;13.51;81.04
38716;BME280;24833;49.324;8.694;2023-02-18T13:37:36;100389.00;;;13.54;81.06
38716;BME280;24833;49.324;8.694;2023-02-18T13:40:16;100386.31;;;13.54;79.83
38716;BME280;24833;49.324;8.694;2023-02-18T13:42:45;100388.59;;;13.57;80.71
38716;BME280;24833;49.324;8.694;2023-02-18T13:45:28;100384.25;;;13.56;80.12
38716;BME280;24833;49.324;8.694;2023-02-18T13:47:56;100364.44;;;13.57;79.83
38716;BME280;24833;49.324;8.694;2023-02-18T14:01:00;100355.78;;;13.61;80.53
38716;BME280;24833;49.324;8.694;2023-02-18T14:06:34;100368.81;;;13.65;79.68
38716;BME280;24833;49.324;8.694;2023-02-18T14:14:57;100358.09;;;13.65;78.32
38716;BME280;24833;49.324;8.694;2023-02-18T14:17:38;100349.38;;;13.62;77.87
38716;BME280;24833;49.324;8.694;2023-02-18T14:25:21;100358.69;;;13.60;78.17
38716;BME280;24833;49.324;8.694;2023-02-18T14:27:53;100344.44;;;13.59;78.96
38716;BME280;24833;49.324;8.694;2023-02-18T14:30:37;100344.44;;;13.59;78.90
38716;BME280;24833;49.324;8.694;2023-02-18T14:33:14;100356.59;;;13.55;78.08
38716;BME280;24833;49.324;8.694;2023-02-18T14:35:55;100350.81;;;13.52;77.61
38716;BME280;24833;49.324;8.694;2023-02-18T14:45:04;100350.34;;;13.42;78.11
38716;BME280;24833;49.324;8.694;2023-02-18T14:48:31;100344.34;;;13.40;76.68
38716;BME280;24833;49.324;8.694;2023-02-18T14:50:56;100355.69;;;13.35;76.88
38716;BME280;24833;49.324;8.694;2023-02-18T14:53:26;100345.97;;;13.34;77.01
38716;BME280;24833;49.324;8.694;2023-02-18T14:55:59;100365.53;;;13.28;76.90
38716;BME280;24833;49.324;8.694;2023-02-18T14:58:36;100366.78;;;13.25;77.57
38716;BME280;24833;49.324;8.694;2023-02-18T15:01:21;100361.78;;;13.22;77.38
38716;BME280;24833;49.324;8.694;2023-02-18T15:03:52;100356.16;;;13.17;77.04
38716;BME280;24833;49.324;8.694;2023-02-18T15:06:33;100371.63;;;13.15;76.83
38716;BME280;24833;49.324;8.694;2023-02-18T15:09:17;100371.00;;;13.13;76.74
38716;BME280;24833;49.324;8.694;2023-02-18T15:11:59;100361.91;;;13.07;76.66
38716;BME280;24833;49.324;8.694;2023-02-18T15:14:36;100374.22;;;13.02;75.32
38716;BME280;24833;49.324;8.694;2023-02-18T15:17:21;100347.16;;;12.97;76.21
38716;BME280;24833;49.324;8.694;2023-02-18T15:19:56;100364.06;;;12.91;76.29
38716;BME280;24833;49.324;8.694;2023-02-18T15:22:26;100370.44;;;12.90;76.65